Time;durP1;ratioP1;P1;durP2;ratioP2;P2;SDS_P1;SDS_P2;PMS_P1;PMS_P2;Temp;Humidity;BMP_temperature;BMP_pressure;BME280_temperature;BME280_humidity;BME280_pressure;Samples;Min_cycle;Max_cycle;Signal;HPM_P1;HPM_P2
2022/07/23 00:01:28;;;;;;;5.47;4.88;;;23.00;55.00;;;;;;4987656;28;20129;-71
2022/07/23 00:03:55;;;;;;;5.22;4.72;;;23.00;55.00;;;;;;4976204;28;20039;-71
2022/07/23 00:06:21;;;;;;;5.40;4.93;;;23.00;55.20;;;;;;4959736;28;20035;-72
2022/07/23 00:08:46;;;;;;;5.82;4.57;;;23.00;55.30;;;;;;4991527;28;20058;-71
2022/07/23 00:11:12;;;;;;;6.32;4.68;;;23.00;55.30;;;;;;4981079;28;20120;-70
2022/07/23 00:13:37;;;;;;;5.43;4.13;;;22.90;55.40;;;;;;4960579;28;20137;-71
2022/07/23 00:16:03;;;;;;;6.68;4.63;;;23.00;55.40;;;;;;4982488;28;20072;-71
2022/07/23 00:18:29;;;;;;;5.45;4.85;;;22.90;55.40;;;;;;4965526;28;20097;-71
2022/07/23 00:20:54;;;;;;;5.20;4.60;;;22.90;55.60;;;;;;4977715;28;20042;-71
2022/07/23 00:23:20;;;;;;;6.40;4.60;;;22.80;55.60;;;;;;4962686;28;20044;-71
2022/07/23 00:25:45;;;;;;;5.75;4.35;;;22.80;55.60;;;;;;4962288;28;20038;-71
2022/07/23 00:28:11;;;;;;;6.10;4.70;;;22.80;55.80;;;;;;4991449;28;20065;-71
2022/07/23 00:30:37;;;;;;;6.05;4.75;;;22.70;55.80;;;;;;4967708;28;20892;-71
2022/07/23 00:33:06;;;;;;;6.00;4.57;;;22.70;55.90;;;;;;4988769;28;20101;-70
2022/07/23 00:35:37;;;;;;;6.20;4.57;;;22.70;56.00;;;;;;4976396;28;20030;-71
2022/07/23 00:38:03;;;;;;;6.87;4.83;;;22.60;56.20;;;;;;4976884;28;20132;-71
2022/07/23 00:40:28;;;;;;;5.03;4.53;;;22.50;56.10;;;;;;4964583;28;20125;-71
2022/07/23 00:42:54;;;;;;;5.13;4.50;;;22.50;56.20;;;;;;4974790;28;20112;-71
2022/07/23 00:45:19;;;;;;;5.80;5.18;;;22.50;56.20;;;;;;4961350;28;20766;-72
2022/07/23 00:47:45;;;;;;;6.15;4.85;;;22.50;56.30;;;;;;4960634;28;20681;-70
2022/07/23 00:50:11;;;;;;;8.05;4.65;;;22.40;56.40;;;;;;4958773;28;20672;-71
2022/07/23 00:52:37;;;;;;;6.07;4.60;;;22.40;56.50;;;;;;4954435;28;20042;-72
2022/07/23 00:55:06;;;;;;;5.43;4.53;;;22.40;56.60;;;;;;4956515;28;20516;-70
2022/07/23 00:57:32;;;;;;;7.80;4.70;;;22.30;56.80;;;;;;4967800;28;20038;-71
2022/07/23 00:59:57;;;;;;;5.60;4.55;;;22.40;56.70;;;;;;4983053;28;20550;-71
2022/07/23 01:02:26;;;;;;;5.75;4.93;;;22.30;56.80;;;;;;4980819;28;20050;-71
2022/07/23 01:04:52;;;;;;;7.97;4.82;;;22.30;56.70;;;;;;4987703;28;20514;-70
2022/07/23 01:07:18;;;;;;;5.00;4.60;;;22.30;56.80;;;;;;4966476;28;20034;-71
2022/07/23 01:09:44;;;;;;;5.82;5.03;;;22.30;56.90;;;;;;4965507;28;20041;-70
2022/07/23 01:12:09;;;;;;;7.65;5.47;;;22.20;57.60;;;;;;4964125;28;20097;-71
2022/07/23 01:14:35;;;;;;;6.75;4.80;;;22.20;57.10;;;;;;4971143;28;20480;-71
2022/07/23 01:17:00;;;;;;;6.47;5.38;;;22.10;57.20;;;;;;4988940;28;20566;-71
2022/07/23 01:19:26;;;;;;;9.93;5.05;;;22.10;57.40;;;;;;4953862;28;20042;-70
2022/07/23 01:21:51;;;;;;;5.65;4.50;;;22.00;57.50;;;;;;4977683;28;20065;-71
2022/07/23 01:24:19;;;;;;;6.32;4.25;;;22.00;57.60;;;;;;4945054;28;20070;-71
2022/07/23 01:26:45;;;;;;;8.43;5.20;;;22.00;57.80;;;;;;4938235;28;20109;-70
2022/07/23 01:29:11;;;;;;;7.40;5.00;;;22.00;57.70;;;;;;4973144;28;20539;-71
2022/07/23 01:31:36;;;;;;;6.70;4.75;;;21.90;57.80;;;;;;4967800;28;20070;-72
2022/07/23 01:34:02;;;;;;;6.50;4.78;;;21.90;58.10;;;;;;4966261;28;20057;-70
2022/07/23 01:36:28;;;;;;;7.22;4.50;;;21.90;58.10;;;;;;4959215;28;20172;-71
2022/07/23 01:38:53;;;;;;;5.95;4.80;;;21.90;58.30;;;;;;4970638;28;20047;-71
2022/07/23 01:41:19;;;;;;;6.53;4.90;;;21.90;58.30;;;;;;4990919;28;20075;-71
2022/07/23 01:43:44;;;;;;;7.35;4.85;;;21.80;59.20;;;;;;4991586;28;20038;-70
2022/07/23 01:46:10;;;;;;;7.18;4.70;;;21.80;58.50;;;;;;4963013;28;20046;-71
2022/07/23 01:48:36;;;;;;;5.50;5.00;;;21.80;58.50;;;;;;4958472;28;20056;-70
2022/07/23 01:51:01;;;;;;;6.05;4.97;;;21.80;58.50;;;;;;4956201;28;20047;-71
2022/07/23 01:53:27;;;;;;;4.95;4.45;;;21.80;58.50;;;;;;4971834;28;20139;-71
2022/07/23 01:55:52;;;;;;;5.78;4.30;;;21.80;58.60;;;;;;4965263;28;20057;-70
2022/07/23 01:58:18;;;;;;;6.10;4.85;;;21.80;58.60;;;;;;4951269;28;20046;-72
2022/07/23 02:00:43;;;;;;;5.13;4.63;;;21.80;58.60;;;;;;4978875;28;20060;-70
2022/07/23 02:03:09;;;;;;;6.40;4.88;;;21.80;58.70;;;;;;4962860;28;20044;-70
2022/07/23 02:05:34;;;;;;;6.50;4.75;;;21.80;58.70;;;;;;4941225;28;20122;-71
2022/07/23 02:08:00;;;;;;;4.68;4.28;;;21.80;58.70;;;;;;4945340;28;20080;-71
2022/07/23 02:10:26;;;;;;;5.50;4.78;;;21.70;58.80;;;;;;4946421;28;20038;-71
2022/07/23 02:12:51;;;;;;;5.43;4.55;;;21.70;58.80;;;;;;4947981;28;20026;-71
2022/07/23 02:15:17;;;;;;;6.07;4.35;;;21.70;58.90;;;;;;4957456;28;20027;-72
2022/07/23 02:17:43;;;;;;;4.90;4.07;;;21.70;59.00;;;;;;4940632;28;20046;-72
2022/07/23 02:20:09;;;;;;;8.45;4.85;;;21.70;59.00;;;;;;4974537;28;20033;-70
2022/07/23 02:22:35;;;;;;;7.03;4.90;;;21.70;59.00;;;;;;4976383;28;20188;-70
2022/07/23 02:25:01;;;;;;;4.97;4.20;;;21.70;59.00;;;;;;4957329;28;20043;-73
2022/07/23 02:27:28;;;;;;;8.43;4.85;;;21.70;59.10;;;;;;4946727;28;20104;-72
2022/07/23 02:29:53;;;;;;;5.22;4.30;;;21.70;59.10;;;;;;4937139;28;20027;-71
2022/07/23 02:32:21;;;;;;;4.93;4.25;;;21.70;59.20;;;;;;4933669;28;22099;-72
2022/07/23 02:34:47;;;;;;;6.28;4.93;;;21.70;59.20;;;;;;4950785;28;20103;-73
2022/07/23 02:37:12;;;;;;;6.20;4.63;;;21.60;59.30;;;;;;4962454;28;20130;-70
2022/07/23 02:39:38;;;;;;;4.65;4.25;;;21.60;59.50;;;;;;4963899;28;20569;-72
2022/07/23 02:42:03;;;;;;;4.78;4.22;;;21.60;59.60;;;;;;4975589;28;20134;-72
2022/07/23 02:44:29;;;;;;;4.65;4.25;;;21.60;59.70;;;;;;4950497;28;20067;-71
2022/07/23 02:46:54;;;;;;;6.68;4.55;;;21.60;59.70;;;;;;4972212;28;20039;-71
2022/07/23 02:49:20;;;;;;;5.97;4.43;;;21.60;59.80;;;;;;4943581;28;20027;-72
2022/07/23 02:51:45;;;;;;;6.00;4.57;;;21.60;59.80;;;;;;4965690;28;20535;-70
2022/07/23 02:54:11;;;;;;;5.07;4.05;;;21.60;59.80;;;;;;4954032;28;20034;-71
2022/07/23 02:56:36;;;;;;;5.07;4.57;;;21.50;59.80;;;;;;4955647;28;20078;-71
2022/07/23 02:59:02;;;;;;;4.90;4.35;;;21.50;59.90;;;;;;4958426;28;20117;-71
2022/07/23 03:01:27;;;;;;;5.68;4.40;;;21.50;60.00;;;;;;4962616;28;20058;-72
2022/07/23 03:03:53;;;;;;;5.95;4.47;;;21.50;60.00;;;;;;4968688;28;20122;-71
2022/07/23 03:06:18;;;;;;;5.60;5.10;;;21.50;60.00;;;;;;4960483;28;20106;-72
2022/07/23 03:08:44;;;;;;;5.65;4.60;;;21.50;60.80;;;;;;4973175;28;20046;-72
2022/07/23 03:11:12;;;;;;;5.50;5.00;;;21.50;60.20;;;;;;4955424;28;20041;-71
2022/07/23 03:13:38;;;;;;;5.55;4.95;;;21.50;60.20;;;;;;4949479;28;20036;-73
2022/07/23 03:16:04;;;;;;;6.35;4.78;;;21.40;60.30;;;;;;4951082;28;20034;-73
2022/07/23 03:18:30;;;;;;;7.20;4.88;;;21.40;60.60;;;;;;4929187;28;20031;-72
2022/07/23 03:20:55;;;;;;;5.13;4.63;;;21.30;60.80;;;;;;4957384;28;20042;-71
2022/07/23 03:23:21;;;;;;;6.18;4.78;;;21.30;60.80;;;;;;4956152;28;20154;-71
2022/07/23 03:25:48;;;;;;;8.35;5.07;;;21.30;60.90;;;;;;4944662;28;20039;-71
2022/07/23 03:28:17;;;;;;;6.78;4.70;;;21.30;61.00;;;;;;4968774;28;20035;-71
2022/07/23 03:30:45;;;;;;;5.75;5.05;;;21.30;61.10;;;;;;4934242;28;20520;-71
2022/07/23 03:33:10;;;;;;;7.53;4.53;;;21.30;61.20;;;;;;4947882;28;20033;-72
2022/07/23 03:35:36;;;;;;;4.72;4.32;;;21.30;61.30;;;;;;4952686;28;20060;-71
2022/07/23 03:38:01;;;;;;;5.30;4.53;;;21.30;61.30;;;;;;4967782;28;20411;-72
2022/07/23 03:40:27;;;;;;;4.63;3.75;;;21.30;61.50;;;;;;4957777;28;20027;-71
2022/07/23 03:42:52;;;;;;;7.28;4.75;;;21.20;61.50;;;;;;4964230;28;20767;-71
2022/07/23 03:45:18;;;;;;;10.73;5.05;;;21.20;61.60;;;;;;4957598;28;20061;-72
2022/07/23 03:47:44;;;;;;;4.93;4.43;;;21.20;61.60;;;;;;4936740;28;20055;-73
2022/07/23 03:50:09;;;;;;;6.65;4.18;;;21.20;61.60;;;;;;4939620;28;20181;-71
2022/07/23 03:52:35;;;;;;;8.77;4.25;;;21.20;61.60;;;;;;4953990;28;20085;-72
2022/07/23 03:55:01;;;;;;;5.25;4.75;;;21.20;61.60;;;;;;4958682;28;20043;-72
2022/07/23 03:57:27;;;;;;;4.95;4.15;;;21.20;61.50;;;;;;4961961;28;20038;-71
2022/07/23 03:59:52;;;;;;;5.00;4.50;;;21.20;61.50;;;;;;4973761;28;20039;-71
2022/07/23 04:02:18;;;;;;;5.32;4.82;;;21.20;61.50;;;;;;4940878;28;20022;-71
2022/07/23 04:04:43;;;;;;;6.10;4.43;;;21.20;61.50;;;;;;4948505;28;20036;-72
2022/07/23 04:07:09;;;;;;;6.28;4.72;;;21.30;61.30;;;;;;4926724;28;20032;-71
2022/07/23 04:09:34;;;;;;;7.15;4.70;;;21.30;61.50;;;;;;4961419;28;20043;-72
2022/07/23 04:12:00;;;;;;;4.93;4.47;;;21.30;61.50;;;;;;4942680;28;20126;-72
2022/07/23 04:14:26;;;;;;;6.07;5.43;;;21.30;61.80;;;;;;4939513;28;20042;-72
2022/07/23 04:16:51;;;;;;;6.50;4.32;;;21.30;62.10;;;;;;4954879;28;20046;-74
2022/07/23 04:19:17;;;;;;;5.25;4.18;;;21.30;62.20;;;;;;4932147;28;20046;-75
2022/07/23 04:21:42;;;;;;;5.90;4.68;;;21.30;62.10;;;;;;4989384;28;20031;-72
2022/07/23 04:24:08;;;;;;;5.70;4.25;;;21.30;62.10;;;;;;4990409;28;20041;-71
2022/07/23 04:26:33;;;;;;;7.40;5.10;;;21.30;62.30;;;;;;4969461;28;20062;-72
2022/07/23 04:28:59;;;;;;;6.97;4.40;;;21.30;62.30;;;;;;4983155;28;20085;-72
2022/07/23 04:31:25;;;;;;;5.80;4.82;;;21.30;62.30;;;;;;4962572;28;20043;-72
2022/07/23 04:33:50;;;;;;;6.60;4.82;;;21.30;62.10;;;;;;4990587;28;20042;-72
2022/07/23 04:36:16;;;;;;;6.63;5.10;;;21.30;62.40;;;;;;4985359;28;20066;-72
2022/07/23 04:38:41;;;;;;;8.38;5.55;;;21.20;62.60;;;;;;4968540;28;20093;-71
2022/07/23 04:41:07;;;;;;;7.50;5.15;;;21.20;62.90;;;;;;4968855;28;20516;-71
2022/07/23 04:43:32;;;;;;;6.68;4.90;;;21.10;63.10;;;;;;4973192;28;20392;-71
2022/07/23 04:45:58;;;;;;;8.65;5.28;;;21.20;63.10;;;;;;4991421;28;20027;-71
2022/07/23 04:48:23;;;;;;;5.13;4.60;;;21.10;63.30;;;;;;4963104;28;20034;-71
2022/07/23 04:50:49;;;;;;;10.02;4.80;;;21.10;63.40;;;;;;4974067;28;20411;-72
2022/07/23 04:53:14;;;;;;;7.22;4.22;;;21.10;63.50;;;;;;4961035;28;20515;-71
2022/07/23 04:55:40;;;;;;;5.78;4.53;;;21.20;63.60;;;;;;4970265;28;20050;-71
2022/07/23 04:58:05;;;;;;;7.13;5.40;;;21.20;63.70;;;;;;4964628;28;20430;-70
2022/07/23 05:00:31;;;;;;;5.85;4.57;;;21.20;63.70;;;;;;4954104;28;20575;-71
2022/07/23 05:02:56;;;;;;;7.70;5.00;;;21.20;63.70;;;;;;4961497;28;20624;-71
2022/07/23 05:05:22;;;;;;;6.15;4.38;;;21.30;63.70;;;;;;4974556;28;20033;-71
2022/07/23 05:07:47;;;;;;;4.60;4.13;;;21.30;63.60;;;;;;4998717;28;20035;-74
2022/07/23 05:10:13;;;;;;;7.13;4.10;;;21.30;63.30;;;;;;4991930;28;20138;-73
2022/07/23 05:12:38;;;;;;;5.07;4.60;;;21.30;63.00;;;;;;4994352;28;20050;-73
2022/07/23 05:15:04;;;;;;;6.22;4.85;;;21.40;62.80;;;;;;4985903;28;20073;-70
2022/07/23 05:17:30;;;;;;;6.60;4.63;;;21.40;62.90;;;;;;4953754;28;20043;-71
2022/07/23 05:19:55;;;;;;;7.93;4.65;;;21.40;63.00;;;;;;4961084;28;20022;-71
2022/07/23 05:22:21;;;;;;;5.28;4.75;;;21.40;63.30;;;;;;4969609;28;20098;-72
2022/07/23 05:24:46;;;;;;;4.65;4.18;;;21.40;63.50;;;;;;4990458;28;20031;-70
2022/07/23 05:27:12;;;;;;;4.20;3.80;;;21.40;63.30;;;;;;4959800;28;20026;-72
2022/07/23 05:29:37;;;;;;;4.32;3.92;;;21.40;63.20;;;;;;4967032;28;20031;-71
2022/07/23 05:32:03;;;;;;;7.95;4.72;;;21.40;63.20;;;;;;4976499;28;21034;-71
2022/07/23 05:34:29;;;;;;;5.57;4.43;;;21.40;64.40;;;;;;4962221;28;20066;-71
2022/07/23 05:36:54;;;;;;;4.43;4.03;;;21.40;63.80;;;;;;4963857;28;20684;-71
2022/07/23 05:39:20;;;;;;;7.72;4.13;;;21.40;63.80;;;;;;4954306;28;20077;-70
2022/07/23 05:41:45;;;;;;;4.93;4.35;;;21.40;63.80;;;;;;4958376;28;20108;-72
2022/07/23 05:44:11;;;;;;;4.32;3.92;;;21.40;63.80;;;;;;4980056;28;20403;-71
2022/07/23 05:46:36;;;;;;;5.07;4.10;;;21.40;64.00;;;;;;4955633;28;20508;-71
2022/07/23 05:49:02;;;;;;;7.35;4.40;;;21.40;64.00;;;;;;4958317;28;20038;-71
2022/07/23 05:51:27;;;;;;;4.97;4.43;;;21.50;63.90;;;;;;4965698;28;20049;-70
2022/07/23 05:53:53;;;;;;;4.80;3.97;;;21.50;64.00;;;;;;4986078;28;20049;-71
2022/07/23 05:56:19;;;;;;;5.22;4.68;;;21.50;63.90;;;;;;4963909;28;20718;-72
2022/07/23 05:58:44;;;;;;;5.10;4.60;;;21.50;63.90;;;;;;4980458;28;20582;-74
2022/07/23 06:01:11;;;;;;;7.38;4.78;;;21.50;63.90;;;;;;4986037;28;20346;-74
2022/07/23 06:03:37;;;;;;;8.30;5.07;;;21.50;64.00;;;;;;4974699;28;20915;-72
2022/07/23 06:06:03;;;;;;;6.35;4.63;;;21.60;64.00;;;;;;4959345;28;20049;-71
2022/07/23 06:08:28;;;;;;;5.97;5.00;;;21.60;64.10;;;;;;4959799;28;20034;-72
2022/07/23 06:10:54;;;;;;;5.78;5.00;;;21.60;64.00;;;;;;4946579;28;20044;-71
2022/07/23 06:13:20;;;;;;;6.45;4.70;;;21.60;64.00;;;;;;4984237;28;20031;-72
2022/07/23 06:15:45;;;;;;;5.65;5.00;;;21.60;64.00;;;;;;4951319;28;20039;-73
2022/07/23 06:18:11;;;;;;;9.18;5.40;;;21.60;64.10;;;;;;4967651;28;20041;-71
2022/07/23 06:20:36;;;;;;;5.50;4.57;;;21.70;64.10;;;;;;4972054;28;20034;-71
2022/07/23 06:23:02;;;;;;;6.95;5.10;;;21.70;63.90;;;;;;4975249;28;20045;-71
2022/07/23 06:25:27;;;;;;;5.72;4.82;;;21.70;63.70;;;;;;4955712;28;20150;-71
2022/07/23 06:27:53;;;;;;;5.68;5.18;;;21.80;63.90;;;;;;4984823;28;20117;-70
2022/07/23 06:30:18;;;;;;;5.00;4.20;;;21.80;63.90;;;;;;4966525;28;20039;-70
2022/07/23 06:32:45;;;;;;;5.70;4.80;;;21.80;63.90;;;;;;4954090;28;20089;-71
2022/07/23 06:35:11;;;;;;;5.05;4.55;;;21.80;63.70;;;;;;4975944;28;20034;-71
2022/07/23 06:37:36;;;;;;;6.40;4.60;;;21.80;63.70;;;;;;4972602;28;20063;-71
2022/07/23 06:40:03;;;;;;;7.65;5.07;;;21.80;63.60;;;;;;4983794;28;20039;-71
2022/07/23 06:42:28;;;;;;;6.95;4.78;;;21.80;63.50;;;;;;4959962;28;20038;-71
2022/07/23 06:44:54;;;;;;;7.18;5.72;;;21.80;63.50;;;;;;4985265;28;20045;-72
2022/07/23 06:47:19;;;;;;;6.75;5.10;;;21.90;63.60;;;;;;4966582;28;20480;-71
2022/07/23 06:49:45;;;;;;;6.97;5.80;;;21.90;63.80;;;;;;4986879;28;20077;-71
2022/07/23 06:52:10;;;;;;;7.20;5.50;;;21.90;64.00;;;;;;4983955;28;20038;-71
2022/07/23 06:54:36;;;;;;;6.30;4.82;;;21.90;64.10;;;;;;4949491;28;20050;-71
2022/07/23 06:57:01;;;;;;;6.60;5.13;;;21.80;64.00;;;;;;4972764;28;20050;-71
2022/07/23 06:59:27;;;;;;;5.60;4.97;;;21.90;63.90;;;;;;4959803;28;20034;-71
2022/07/23 07:01:53;;;;;;;5.97;4.85;;;21.80;63.90;;;;;;4970673;28;20039;-72
2022/07/23 07:04:18;;;;;;;6.43;4.80;;;21.90;64.00;;;;;;4982477;28;20038;-72
2022/07/23 07:06:43;;;;;;;7.32;5.03;;;21.90;63.80;;;;;;4965779;28;20522;-72
2022/07/23 07:09:09;;;;;;;7.95;4.97;;;21.90;63.80;;;;;;4987482;28;20165;-71
2022/07/23 07:11:35;;;;;;;6.13;4.80;;;21.90;63.90;;;;;;4962198;28;20051;-71
2022/07/23 07:14:00;;;;;;;5.68;4.80;;;21.90;63.90;;;;;;4970144;28;20054;-72
2022/07/23 07:16:26;;;;;;;5.18;4.72;;;21.90;64.10;;;;;;4979202;28;20499;-70
2022/07/23 07:18:51;;;;;;;7.15;5.30;;;21.90;64.10;;;;;;4975640;28;20514;-72
2022/07/23 07:21:17;;;;;;;5.18;4.63;;;21.90;64.00;;;;;;4986866;28;20038;-74
2022/07/23 07:23:42;;;;;;;7.82;5.18;;;21.90;63.90;;;;;;5002114;28;20037;-74
2022/07/23 07:26:08;;;;;;;7.55;5.05;;;22.00;63.70;;;;;;4978261;28;20455;-73
2022/07/23 07:28:33;;;;;;;7.97;5.03;;;22.00;63.50;;;;;;4956585;28;20035;-74
2022/07/23 07:30:59;;;;;;;7.72;5.20;;;22.00;63.60;;;;;;4962651;28;20042;-72
2022/07/23 07:33:24;;;;;;;6.13;4.72;;;22.00;63.60;;;;;;4965042;28;20522;-71
2022/07/23 07:35:50;;;;;;;5.60;5.10;;;22.10;63.80;;;;;;4970397;28;20133;-72
2022/07/23 07:38:15;;;;;;;4.85;4.38;;;22.10;63.80;;;;;;4977849;28;20033;-72
2022/07/23 07:40:41;;;;;;;6.05;4.95;;;22.10;63.80;;;;;;4976653;28;20084;-72
2022/07/23 07:43:06;;;;;;;6.30;4.57;;;22.20;63.60;;;;;;4958750;28;20030;-72
2022/07/23 07:45:32;;;;;;;7.88;4.90;;;22.30;63.80;;;;;;4974264;28;20038;-73
2022/07/23 07:47:57;;;;;;;7.13;5.03;;;22.30;63.80;;;;;;4961396;28;20085;-72
2022/07/23 07:50:23;;;;;;;5.85;4.85;;;22.30;63.60;;;;;;4992659;28;21337;-73
2022/07/23 07:52:49;;;;;;;5.70;4.78;;;22.40;63.70;;;;;;4981285;28;20350;-72
2022/07/23 07:55:14;;;;;;;7.28;5.28;;;22.40;63.80;;;;;;4989459;28;20089;-73
2022/07/23 07:57:40;;;;;;;8.32;4.70;;;22.40;64.00;;;;;;4966708;28;20038;-71
2022/07/23 08:00:06;;;;;;;7.70;4.93;;;22.50;63.80;;;;;;4972585;28;20045;-73
2022/07/23 08:02:45;;;;;;;9.30;4.57;;;22.60;63.70;;;;;;4971168;28;20403;-72
2022/07/23 08:05:11;;;;;;;5.47;4.13;;;22.80;63.80;;;;;;4961177;28;20168;-71
2022/07/23 08:07:38;;;;;;;8.88;5.18;;;22.90;63.20;;;;;;4944789;28;20500;-71
2022/07/23 08:10:04;;;;;;;5.82;4.30;;;23.00;63.10;;;;;;4971377;28;20035;-71
2022/07/23 08:12:38;;;;;;;7.55;4.65;;;23.20;63.00;;;;;;4960824;28;20038;-72
2022/07/23 08:15:04;;;;;;;7.18;4.38;;;23.30;62.80;;;;;;4991419;28;20093;-72
2022/07/23 08:17:30;;;;;;;5.25;3.65;;;23.50;62.50;;;;;;4969139;28;20045;-71
2022/07/23 08:19:55;;;;;;;7.65;4.53;;;23.80;62.30;;;;;;4961508;28;20030;-71
2022/07/23 08:22:21;;;;;;;5.07;4.20;;;24.00;61.80;;;;;;4970273;28;20751;-71
2022/07/23 08:24:46;;;;;;;7.50;4.25;;;24.10;61.30;;;;;;4962091;28;20610;-71
2022/07/23 08:27:12;;;;;;;10.77;4.43;;;24.20;60.90;;;;;;4975145;28;20026;-72
2022/07/23 08:29:37;;;;;;;8.48;4.07;;;24.20;60.70;;;;;;4983243;28;20142;-71
2022/07/23 08:32:03;;;;;;;5.25;4.45;;;24.30;60.50;;;;;;4979728;28;20093;-73
2022/07/23 08:34:29;;;;;;;4.68;4.28;;;24.40;60.30;;;;;;4974686;28;20042;-71
2022/07/23 08:36:54;;;;;;;16.65;5.65;;;24.50;60.20;;;;;;4981717;28;20038;-72
2022/07/23 08:39:20;;;;;;;6.28;4.22;;;24.60;60.00;;;;;;4976193;28;20038;-71
2022/07/23 08:41:45;;;;;;;4.53;4.03;;;24.60;59.80;;;;;;4967902;28;20035;-72
2022/07/23 08:44:11;;;;;;;5.35;4.20;;;24.70;59.60;;;;;;4987526;28;20038;-71
2022/07/23 08:46:36;;;;;;;5.65;4.50;;;24.80;59.50;;;;;;4968991;28;20058;-72
2022/07/23 08:49:02;;;;;;;6.85;4.65;;;24.80;59.30;;;;;;4974614;28;20120;-71
2022/07/23 08:51:27;;;;;;;7.57;4.05;;;24.90;59.10;;;;;;4992064;28;20069;-72
2022/07/23 08:53:54;;;;;;;8.40;4.20;;;24.90;59.00;;;;;;4975856;28;20112;-72
2022/07/23 08:56:19;;;;;;;6.90;5.00;;;25.10;58.90;;;;;;4967548;28;20037;-72
2022/07/23 08:58:45;;;;;;;5.68;4.00;;;25.10;58.60;;;;;;4975827;28;20061;-72
2022/07/23 09:01:10;;;;;;;8.38;4.43;;;25.20;58.50;;;;;;4955983;28;20515;-71
2022/07/23 09:03:38;;;;;;;5.68;4.65;;;25.30;58.40;;;;;;4981155;28;20508;-72
2022/07/23 09:06:03;;;;;;;4.90;4.40;;;25.50;58.20;;;;;;4961495;28;20035;-73
2022/07/23 09:08:37;;;;;;;7.07;4.53;;;25.80;58.10;;;;;;4975464;28;20034;-72
2022/07/23 09:11:04;;;;;;;4.80;4.40;;;26.00;57.60;;;;;;4966962;28;20042;-71
2022/07/23 09:13:38;;;;;;;6.75;4.20;;;26.10;57.30;;;;;;4949090;28;20477;-72
2022/07/23 09:16:08;;;;;;;7.78;4.47;;;26.30;56.80;;;;;;4979376;28;20571;-72
2022/07/23 09:18:45;;;;;;;7.30;4.05;;;26.40;56.60;;;;;;4966444;28;20089;-73
2022/07/23 09:21:16;;;;;;;4.95;3.90;;;26.50;56.40;;;;;;4959323;28;20049;-72
2022/07/23 09:23:44;;;;;;;5.30;4.33;;;26.70;56.20;;;;;;4969976;28;20030;-71
2022/07/23 09:26:23;;;;;;;12.55;4.68;;;26.80;56.00;;;;;;4966712;28;20290;-73
2022/07/23 09:29:22;;;;;;;5.18;3.97;;;27.00;55.50;;;;;;4961856;28;20073;-72
2022/07/23 09:31:52;;;;;;;4.25;3.85;;;27.20;55.30;;;;;;4950327;28;20104;-72
2022/07/23 09:34:24;;;;;;;7.18;4.57;;;27.40;55.10;;;;;;4964576;28;20708;-73
2022/07/23 09:36:54;;;;;;;11.95;4.03;;;27.50;54.50;;;;;;4971625;28;20534;-72
2022/07/23 09:39:40;;;;;;;9.57;4.05;;;27.60;54.40;;;;;;4967828;28;20077;-73
2022/07/23 09:42:16;;;;;;;8.07;4.75;;;27.70;54.00;;;;;;4964633;28;20467;-71
2022/07/23 09:44:43;;;;;;;5.03;3.88;;;27.80;53.90;;;;;;4963250;28;20122;-71
2022/07/23 09:47:09;;;;;;;5.15;3.85;;;28.00;53.90;;;;;;4976299;28;20041;-72
2022/07/23 09:49:34;;;;;;;4.63;4.22;;;28.20;53.70;;;;;;4970606;28;20055;-72
2022/07/23 09:52:01;;;;;;;6.43;4.20;;;28.40;53.40;;;;;;4937347;28;20042;-71
2022/07/23 09:54:34;;;;;;;5.85;4.18;;;28.60;53.10;;;;;;4988784;28;20062;-73
2022/07/23 09:57:06;;;;;;;4.13;3.72;;;28.80;52.60;;;;;;4967263;28;20041;-72
2022/07/23 09:59:36;;;;;;;7.57;4.50;;;28.90;52.30;;;;;;4961381;28;20046;-72
2022/07/23 10:02:02;;;;;;;6.93;4.75;;;29.00;52.10;;;;;;4992527;28;20161;-72
2022/07/23 10:04:28;;;;;;;4.47;4.03;;;29.10;51.90;;;;;;4973591;28;20614;-73
2022/07/23 10:06:56;;;;;;;5.85;4.47;;;29.10;51.60;;;;;;4965747;28;20039;-75
2022/07/23 10:09:24;;;;;;;7.15;4.53;;;29.30;51.50;;;;;;4983396;28;20027;-72
2022/07/23 10:11:50;;;;;;;7.63;3.97;;;29.40;51.20;;;;;;4976329;28;20038;-72
2022/07/23 10:14:15;;;;;;;7.95;4.45;;;29.50;51.00;;;;;;4958964;28;20517;-72
2022/07/23 10:16:41;;;;;;;5.15;4.35;;;29.50;50.70;;;;;;4956307;28;20034;-73
2022/07/23 10:19:06;;;;;;;5.25;4.43;;;29.60;50.60;;;;;;4948624;28;20031;-73
2022/07/23 10:21:40;;;;;;;8.02;4.50;;;29.70;50.40;;;;;;4965113;28;20038;-73
2022/07/23 10:24:18;;;;;;;7.32;4.50;;;29.90;50.20;;;;;;4972057;28;20115;-72
2022/07/23 10:27:00;;;;;;;4.88;4.13;;;30.10;49.80;;;;;;4965547;28;20046;-73
2022/07/23 10:29:37;;;;;;;6.03;4.15;;;30.30;49.50;;;;;;4978685;28;20057;-72
2022/07/23 10:32:08;;;;;;;4.82;4.43;;;30.40;50.00;;;;;;4959631;28;20042;-71
2022/07/23 10:34:40;;;;;;;4.57;4.18;;;30.40;49.10;;;;;;4973984;28;20382;-73
2022/07/23 10:37:05;;;;;;;6.82;4.18;;;30.50;49.00;;;;;;4959920;28;20507;-73
2022/07/23 10:39:32;;;;;;;4.95;4.30;;;30.60;48.70;;;;;;4995664;28;20038;-72
2022/07/23 10:42:11;;;;;;;4.35;3.97;;;30.70;48.60;;;;;;4968894;28;20027;-72
2022/07/23 10:44:44;;;;;;;4.57;4.15;;;30.90;48.00;;;;;;4964966;28;20484;-73
2022/07/23 10:49:54;;;;;;;5.55;4.15;;;31.20;47.90;;;;;;4970427;28;20045;-73
2022/07/23 10:52:21;;;;;;;5.80;3.95;;;31.30;47.70;;;;;;4944460;28;20047;-73
2022/07/23 10:54:53;;;;;;;4.28;3.88;;;31.30;47.50;;;;;;4979861;28;20074;-74
2022/07/23 10:57:21;;;;;;;5.38;3.95;;;31.50;47.20;;;;;;4974567;28;20184;-73
2022/07/23 11:00:17;;;;;;;6.20;3.55;;;31.60;47.20;;;;;;4952164;28;20042;-72
2022/07/23 11:02:46;;;;;;;3.63;3.33;;;31.70;46.70;;;;;;4964636;28;20035;-73
2022/07/23 11:05:13;;;;;;;4.63;3.60;;;31.70;46.80;;;;;;4953221;28;20436;-72
2022/07/23 11:08:07;;;;;;;4.15;3.75;;;31.70;46.70;;;;;;4974612;28;20079;-72
2022/07/23 11:10:46;;;;;;;4.57;3.92;;;31.70;46.70;;;;;;4970951;28;20047;-72
2022/07/23 11:13:24;;;;;;;6.60;4.30;;;31.70;46.30;;;;;;4968880;28;20138;-72
2022/07/23 11:16:04;;;;;;;4.20;3.80;;;31.90;46.10;;;;;;4962909;28;20113;-73
2022/07/23 11:18:46;;;;;;;6.68;4.43;;;32.10;45.90;;;;;;4978510;28;20057;-73
2022/07/23 11:21:26;;;;;;;5.50;4.40;;;32.20;45.50;;;;;;4992710;28;20716;-72
2022/07/23 11:24:01;;;;;;;4.78;4.03;;;32.20;45.10;;;;;;4981319;28;20057;-73
2022/07/23 11:26:43;;;;;;;4.30;3.55;;;32.10;45.20;;;;;;4985433;28;20497;-73
2022/07/23 11:29:33;;;;;;;4.50;4.03;;;32.00;45.00;;;;;;4968405;28;20054;-73
2022/07/23 11:32:18;;;;;;;4.13;3.83;;;31.80;45.00;;;;;;4954460;28;20522;-72
2022/07/23 11:34:47;;;;;;;3.95;3.58;;;31.80;45.40;;;;;;4979029;28;20038;-72
2022/07/23 11:37:27;;;;;;;4.40;3.97;;;31.80;45.30;;;;;;4997186;28;20031;-73
2022/07/23 11:39:56;;;;;;;4.15;3.85;;;31.90;44.70;;;;;;4961210;28;20039;-72
2022/07/23 11:42:23;;;;;;;4.10;3.70;;;32.00;45.00;;;;;;4955615;28;20046;-72
2022/07/23 11:44:49;;;;;;;9.45;4.13;;;32.00;44.80;;;;;;4957864;28;20096;-73
2022/07/23 11:47:14;;;;;;;5.43;4.10;;;32.00;44.70;;;;;;4975667;28;20042;-73
2022/07/23 11:49:55;;;;;;;4.50;4.07;;;32.00;44.40;;;;;;4968608;28;20542;-72
2022/07/23 11:52:21;;;;;;;5.65;4.07;;;32.00;44.10;;;;;;4962344;28;20038;-72
2022/07/23 11:54:47;;;;;;;5.65;4.32;;;32.00;44.20;;;;;;4963522;28;20047;-72
2022/07/23 11:57:13;;;;;;;3.83;3.53;;;32.00;44.00;;;;;;4990469;28;20049;-74
2022/07/23 11:59:39;;;;;;;4.40;4.00;;;32.10;43.80;;;;;;4956810;28;20038;-71
2022/07/23 12:02:05;;;;;;;4.00;3.70;;;32.10;43.30;;;;;;4957605;28;20039;-72
2022/07/23 12:04:40;;;;;;;4.80;3.80;;;32.30;43.50;;;;;;4974487;28;20027;-73
2022/07/23 12:07:37;;;;;;;4.28;3.85;;;32.40;42.80;;;;;;4954195;28;20037;-72
2022/07/23 12:10:14;;;;;;;3.67;3.38;;;32.70;42.60;;;;;;4970382;28;20519;-72
2022/07/23 12:12:46;;;;;;;8.45;4.28;;;32.70;42.20;;;;;;4992735;28;20045;-72
2022/07/23 12:15:13;;;;;;;5.60;3.90;;;32.80;42.30;;;;;;4972850;28;20041;-73
2022/07/23 12:17:39;;;;;;;4.50;4.10;;;32.90;42.30;;;;;;4985014;28;20035;-72
2022/07/23 12:20:06;;;;;;;4.18;3.80;;;32.90;41.90;;;;;;4968191;28;20108;-72
2022/07/23 12:22:37;;;;;;;4.38;3.97;;;32.80;41.80;;;;;;4982485;28;20153;-73
2022/07/23 12:25:08;;;;;;;5.50;3.92;;;32.70;41.80;;;;;;4992357;28;20034;-72
2022/07/23 12:27:33;;;;;;;4.40;3.80;;;32.80;42.10;;;;;;4964350;28;20038;-73
2022/07/23 12:29:59;;;;;;;4.18;3.78;;;32.90;42.60;;;;;;4978233;28;20039;-73
2022/07/23 12:32:26;;;;;;;3.97;3.58;;;32.90;41.40;;;;;;4946268;28;20102;-74
2022/07/23 12:35:12;;;;;;;4.80;4.32;;;33.10;41.30;;;;;;4974887;28;20034;-73
2022/07/23 12:37:41;;;;;;;3.97;3.38;;;33.30;40.60;;;;;;4949074;28;20047;-72
2022/07/23 12:40:27;;;;;;;4.13;3.72;;;33.40;40.90;;;;;;4956109;28;20030;-72
2022/07/23 12:43:00;;;;;;;5.63;3.53;;;33.50;39.50;;;;;;4962045;28;20066;-73
2022/07/23 12:45:26;;;;;;;3.92;3.53;;;33.60;40.00;;;;;;4949657;28;20125;-73
2022/07/23 12:48:06;;;;;;;4.47;3.95;;;33.60;40.00;;;;;;4924364;28;20074;-72
2022/07/23 12:50:39;;;;;;;4.70;4.20;;;33.80;39.00;;;;;;4975498;28;20031;-73